createdAt,value
2018-05-09T00:00:07.900Z,82.68
2018-05-09T00:01:07.754Z,83.40
2018-05-09T00:02:07.697Z,83.78
2018-05-09T00:03:07.638Z,84.55
2018-05-09T00:04:07.580Z,85.02
2018-05-09T00:05:07.527Z,85.69
2018-05-09T00:06:07.467Z,85.88
2018-05-09T00:07:07.412Z,84.92
2018-05-09T00:08:07.352Z,85.60
2018-05-09T00:09:07.298Z,86.45
2018-05-09T00:10:07.242Z,86.16
2018-05-09T00:11:07.184Z,85.78
2018-05-09T00:12:07.168Z,85.78
2018-05-09T00:13:07.068Z,85.88
2018-05-09T00:14:07.010Z,85.21
2018-05-09T00:15:06.952Z,84.92
2018-05-09T00:16:06.896Z,85.31
2018-05-09T00:17:06.854Z,84.64
2018-05-09T00:18:06.782Z,84.92
2018-05-09T00:19:06.724Z,84.92
2018-05-09T00:20:06.668Z,85.31
2018-05-09T00:21:06.618Z,85.60
2018-05-09T00:22:06.559Z,85.41
2018-05-09T00:23:06.497Z,85.69
2018-05-09T00:24:06.438Z,85.50
2018-05-09T00:25:06.380Z,85.88
2018-05-09T00:26:06.326Z,85.60
2018-05-09T00:27:06.266Z,85.12
2018-05-09T00:28:06.210Z,85.88
2018-05-09T00:29:06.153Z,85.31
2018-05-09T00:30:06.096Z,85.12
2018-05-09T00:31:06.038Z,85.41
2018-05-09T00:32:05.982Z,85.78
2018-05-09T00:33:05.924Z,85.88
2018-05-09T00:34:05.868Z,86.07
2018-05-09T00:35:05.820Z,85.73
2018-05-09T00:36:05.759Z,85.41
2018-05-09T00:37:05.695Z,84.83
2018-05-09T00:38:05.640Z,84.92
2018-05-09T00:39:05.581Z,85.50
2018-05-09T00:40:05.525Z,85.31
2018-05-09T00:41:05.468Z,85.02
2018-05-09T00:42:05.413Z,85.12
2018-05-09T00:43:05.356Z,85.12
2018-05-09T00:44:05.296Z,84.45
2018-05-09T00:45:05.241Z,84.36
2018-05-09T00:46:05.181Z,84.92
2018-05-09T00:47:05.126Z,85.60
2018-05-09T00:48:05.067Z,86.65
2018-05-09T00:49:05.010Z,86.74
2018-05-09T00:50:04.955Z,86.93
2018-05-09T00:51:04.897Z,86.36
2018-05-09T00:52:04.839Z,86.36
2018-05-09T00:53:04.783Z,86.16
2018-05-09T00:54:04.727Z,86.26
2018-05-09T00:55:04.669Z,86.16
2018-05-09T00:56:04.609Z,86.26
2018-05-09T00:57:04.553Z,86.36
2018-05-09T00:58:04.511Z,86.55
2018-05-09T00:59:04.439Z,86.55
2018-05-09T01:00:04.381Z,84.92
2018-05-09T01:01:04.330Z,85.78
2018-05-09T01:02:04.267Z,85.50
2018-05-09T01:03:04.209Z,86.12
2018-05-09T01:04:04.151Z,86.55
2018-05-09T01:05:04.093Z,86.22
2018-05-09T01:06:04.038Z,85.97
2018-05-09T01:07:03.984Z,86.98
2018-05-09T01:08:03.923Z,87.17
2018-05-09T01:09:03.865Z,87.65
2018-05-09T01:10:03.807Z,87.74
2018-05-09T01:11:03.752Z,87.55
2018-05-09T01:12:03.693Z,87.46
2018-05-09T01:13:03.634Z,87.93
2018-05-09T01:14:03.577Z,88.12
2018-05-09T01:15:03.520Z,87.93
2018-05-09T01:16:03.479Z,87.55
2018-05-09T01:17:03.404Z,87.55
2018-05-09T01:18:03.347Z,87.55
2018-05-09T01:19:03.289Z,87.46
2018-05-09T01:20:03.236Z,86.98
2018-05-09T01:21:03.174Z,87.84
2018-05-09T01:22:03.117Z,87.46
2018-05-09T01:23:03.061Z,89.26
2018-05-09T01:24:03.002Z,88.79
2018-05-09T01:25:02.947Z,88.51
2018-05-09T01:26:02.887Z,87.93
2018-05-09T01:27:02.828Z,87.50
2018-05-09T01:28:02.772Z,87.74
2018-05-09T01:29:02.714Z,87.46
2018-05-09T01:30:02.664Z,87.55
2018-05-09T01:31:02.601Z,87.55
2018-05-09T01:32:02.540Z,87.74
2018-05-09T01:33:02.483Z,88.84
2018-05-09T01:34:02.426Z,88.93
2018-05-09T01:35:02.368Z,88.74
2018-05-09T01:36:02.311Z,88.74
2018-05-09T01:37:02.252Z,88.51
2018-05-09T01:38:02.195Z,88.17
2018-05-09T01:39:02.139Z,87.60
2018-05-09T01:40:02.081Z,87.40
2018-05-09T01:41:02.024Z,88.12
2018-05-09T01:42:01.966Z,87.88
2018-05-09T01:43:01.909Z,87.60
2018-05-09T01:44:01.853Z,88.22
2018-05-09T01:45:01.792Z,87.60
2018-05-09T01:46:01.735Z,87.12
2018-05-09T01:47:01.679Z,87.93
2018-05-09T01:48:01.619Z,88.74
2018-05-09T01:49:01.561Z,87.79
2018-05-09T01:50:01.506Z,87.60
2018-05-09T01:51:01.447Z,88.84
2018-05-09T01:52:01.389Z,88.31
2018-05-09T01:53:01.333Z,88.41
2018-05-09T01:54:01.274Z,88.26
2018-05-09T01:55:01.249Z,88.07
2018-05-09T01:56:01.158Z,88.45
2018-05-09T01:57:01.101Z,88.84
2018-05-09T01:58:01.044Z,88.55
2018-05-09T01:59:00.987Z,88.55
2018-05-09T02:00:00.926Z,89.03
2018-05-09T02:01:00.869Z,88.55
2018-05-09T02:02:00.816Z,87.88
2018-05-09T02:03:00.755Z,87.98
2018-05-09T02:04:00.698Z,87.50
2018-05-09T02:05:00.641Z,87.21
2018-05-09T02:06:00.602Z,86.83
2018-05-09T02:07:00.525Z,86.74
2018-05-09T02:08:00.466Z,86.26
2018-05-09T02:09:00.408Z,86.60
2018-05-09T02:10:00.353Z,85.93
2018-05-09T02:11:00.297Z,86.98
2018-05-09T02:12:00.237Z,86.98
2018-05-09T02:13:00.185Z,86.88
2018-05-09T02:14:00.121Z,87.74
2018-05-09T02:15:00.063Z,88.31
2018-05-09T02:16:00.007Z,88.89
2018-05-09T02:16:59.950Z,88.79
2018-05-09T02:17:59.889Z,89.17
2018-05-09T02:18:59.832Z,89.46
2018-05-09T02:19:59.774Z,89.55
2018-05-09T02:20:59.716Z,90.41
2018-05-09T02:21:59.670Z,90.41
2018-05-09T02:22:59.604Z,89.75
2018-05-09T02:23:59.560Z,90.03
2018-05-09T02:24:59.487Z,90.41
2018-05-09T02:25:59.428Z,90.12
2018-05-09T02:26:59.375Z,89.84
2018-05-09T02:27:59.313Z,89.55
2018-05-09T02:28:59.255Z,90.50
2018-05-09T02:29:59.202Z,91.27
2018-05-09T02:30:59.156Z,91.17
2018-05-09T02:31:59.084Z,90.70
2018-05-09T02:32:59.030Z,90.12
2018-05-09T02:33:58.967Z,90.03
2018-05-09T02:34:58.911Z,89.94
2018-05-09T02:35:58.852Z,91.08
2018-05-09T02:36:58.794Z,90.79
2018-05-09T02:37:58.736Z,90.60
2018-05-09T02:38:58.680Z,90.31
2018-05-09T02:39:58.621Z,90.50
2018-05-09T02:40:58.562Z,90.50
2018-05-09T02:41:58.506Z,91.27
2018-05-09T02:42:58.452Z,90.89
2018-05-09T02:43:58.389Z,91.08
2018-05-09T02:44:58.334Z,90.89
2018-05-09T02:45:58.275Z,90.31
2018-05-09T02:46:58.219Z,90.31
2018-05-09T02:47:58.159Z,91.65
2018-05-09T02:48:58.105Z,91.55
2018-05-09T02:49:58.206Z,91.55
2018-05-09T02:50:57.987Z,91.08
2018-05-09T02:51:57.928Z,91.36
2018-05-09T02:52:57.871Z,91.84
2018-05-09T02:53:57.814Z,91.46
2018-05-09T02:54:57.756Z,91.08
2018-05-09T02:55:57.697Z,90.89
2018-05-09T02:56:57.640Z,91.27
2018-05-09T02:57:57.582Z,91.36
2018-05-09T02:58:57.525Z,92.22
2018-05-09T02:59:57.468Z,92.22
2018-05-09T03:00:57.410Z,91.84
2018-05-09T03:01:57.352Z,91.55
2018-05-09T03:02:57.297Z,91.46
2018-05-09T03:03:57.235Z,91.65
2018-05-09T03:04:57.178Z,92.22
2018-05-09T03:05:57.119Z,91.94
2018-05-09T03:06:57.062Z,91.65
2018-05-09T03:07:57.003Z,91.17
2018-05-09T03:08:56.946Z,90.89
2018-05-09T03:09:56.890Z,91.08
2018-05-09T03:10:56.831Z,90.70
2018-05-09T03:11:56.773Z,90.98
2018-05-09T03:12:56.715Z,92.03
2018-05-09T03:13:56.656Z,92.13
2018-05-09T03:14:56.601Z,92.22
2018-05-09T03:15:56.541Z,91.46
2018-05-09T03:16:56.483Z,91.08
2018-05-09T03:17:56.429Z,92.03
2018-05-09T03:18:56.368Z,93.08
2018-05-09T03:19:56.312Z,92.13
2018-05-09T03:20:56.253Z,92.79
2018-05-09T03:21:56.200Z,93.37
2018-05-09T03:22:56.137Z,91.46
2018-05-09T03:23:56.079Z,90.79
2018-05-09T03:24:56.021Z,90.50
2018-05-09T03:25:55.964Z,90.41
2018-05-09T03:26:55.907Z,90.31
2018-05-09T03:27:55.857Z,90.08
2018-05-09T03:28:55.792Z,90.17
2018-05-09T03:29:55.732Z,90.17
2018-05-09T03:30:55.679Z,90.84
2018-05-09T03:31:55.616Z,90.65
2018-05-09T03:32:55.557Z,91.13
2018-05-09T03:33:55.500Z,91.13
2018-05-09T03:34:55.442Z,91.51
2018-05-09T03:35:55.384Z,92.18
2018-05-09T03:36:55.326Z,91.60
2018-05-09T03:37:55.271Z,91.79
2018-05-09T03:38:55.211Z,91.70
2018-05-09T03:39:55.151Z,92.27
2018-05-09T03:40:55.094Z,92.18
2018-05-09T03:41:55.036Z,92.65
2018-05-09T03:42:54.978Z,93.03
2018-05-09T03:43:54.919Z,93.70
2018-05-09T03:44:54.861Z,93.22
2018-05-09T03:45:54.803Z,93.41
2018-05-09T03:46:54.745Z,92.55
2018-05-09T03:47:54.686Z,93.41
2018-05-09T03:48:54.629Z,92.65
2018-05-09T03:49:54.573Z,93.70
2018-05-09T03:50:54.513Z,93.27
2018-05-09T03:51:54.454Z,92.94
2018-05-09T03:52:54.396Z,92.79
2018-05-09T03:53:54.338Z,92.99
2018-05-09T03:54:54.280Z,92.60
2018-05-09T03:55:54.221Z,93.08
2018-05-09T03:56:54.163Z,92.51
2018-05-09T03:57:54.106Z,92.70
2018-05-09T03:58:54.046Z,93.18
2018-05-09T03:59:53.988Z,93.46
2018-05-09T04:00:53.930Z,93.55
2018-05-09T04:01:53.870Z,93.37
2018-05-09T04:02:53.810Z,94.03
2018-05-09T04:03:53.753Z,94.42
2018-05-09T04:04:53.695Z,94.51
2018-05-09T04:05:53.637Z,94.42
2018-05-09T04:06:53.577Z,94.32
2018-05-09T04:07:53.521Z,94.98
2018-05-09T04:08:53.460Z,94.79
2018-05-09T04:09:53.403Z,94.22
2018-05-09T04:10:53.344Z,94.22
2018-05-09T04:11:53.290Z,94.89
2018-05-09T04:12:53.227Z,94.79
2018-05-09T04:13:53.168Z,94.65
2018-05-09T04:14:53.190Z,93.89
2018-05-09T04:15:53.050Z,92.70
2018-05-09T04:16:52.993Z,92.79
2018-05-09T04:17:52.938Z,92.99
2018-05-09T04:18:52.876Z,92.99
2018-05-09T04:19:52.816Z,91.94
2018-05-09T04:20:52.814Z,92.03
2018-05-09T04:21:52.701Z,91.75
2018-05-09T04:22:52.641Z,91.94
2018-05-09T04:23:52.582Z,92.13
2018-05-09T04:24:52.533Z,92.41
2018-05-09T04:25:52.464Z,92.79
2018-05-09T04:26:52.407Z,92.79
2018-05-09T04:27:52.346Z,93.27
2018-05-09T04:28:52.289Z,93.74
2018-05-09T04:29:52.230Z,93.55
2018-05-09T04:30:52.171Z,93.65
2018-05-09T04:31:52.116Z,93.84
2018-05-09T04:32:52.055Z,94.60
2018-05-09T04:33:51.997Z,94.56
2018-05-09T04:34:51.938Z,93.37
2018-05-09T04:35:51.878Z,93.46
2018-05-09T04:36:51.823Z,93.32
2018-05-09T04:37:51.761Z,93.98
2018-05-09T04:38:51.703Z,94.08
2018-05-09T04:39:51.647Z,94.46
2018-05-09T04:40:51.587Z,94.56
2018-05-09T04:41:51.562Z,94.46
2018-05-09T04:42:51.470Z,95.41
2018-05-09T04:43:51.410Z,95.03
2018-05-09T04:44:51.353Z,95.41
2018-05-09T04:45:51.294Z,95.32
2018-05-09T04:46:51.237Z,94.84
2018-05-09T04:47:51.183Z,94.93
2018-05-09T04:48:51.120Z,94.74
2018-05-09T04:49:51.061Z,94.70
2018-05-09T04:50:51.005Z,94.70
2018-05-09T04:51:50.943Z,94.41
2018-05-09T04:52:50.885Z,93.46
2018-05-09T04:53:50.828Z,92.50
2018-05-09T04:54:50.772Z,91.94
2018-05-09T04:55:50.710Z,92.13
2018-05-09T04:56:50.653Z,92.13
2018-05-09T04:57:50.597Z,92.03
2018-05-09T04:58:50.544Z,92.89
2018-05-09T04:59:50.479Z,92.41
2018-05-09T05:00:50.420Z,92.65
2018-05-09T05:01:50.362Z,93.65
2018-05-09T05:02:50.306Z,94.32
2018-05-09T05:03:50.245Z,94.32
2018-05-09T05:04:50.187Z,94.32
2018-05-09T05:05:50.129Z,94.51
2018-05-09T05:06:50.072Z,94.13
2018-05-09T05:07:50.015Z,94.60
2018-05-09T05:08:49.955Z,94.32
2018-05-09T05:09:49.900Z,94.70
2018-05-09T05:10:49.840Z,94.79
2018-05-09T05:11:49.780Z,94.22
2018-05-09T05:12:49.723Z,94.84
2018-05-09T05:13:49.665Z,94.65
2018-05-09T05:14:49.607Z,94.17
2018-05-09T05:15:49.644Z,94.17
2018-05-09T05:16:49.491Z,93.60
2018-05-09T05:17:49.433Z,93.98
2018-05-09T05:18:49.378Z,93.60
2018-05-09T05:19:49.317Z,93.60
2018-05-09T05:20:49.260Z,93.70
2018-05-09T05:21:49.208Z,93.27
2018-05-09T05:22:49.146Z,93.84
2018-05-09T05:23:49.091Z,93.46
2018-05-09T05:24:49.030Z,93.08
2018-05-09T05:25:48.972Z,92.88
2018-05-09T05:26:48.916Z,92.12
2018-05-09T05:27:48.859Z,92.88
2018-05-09T05:28:48.803Z,94.41
2018-05-09T05:29:48.745Z,94.60
2018-05-09T05:30:48.686Z,94.32
2018-05-09T05:31:48.631Z,94.60
2018-05-09T05:32:48.593Z,94.22
2018-05-09T05:33:48.514Z,94.79
2018-05-09T05:34:48.458Z,93.74
2018-05-09T05:35:48.398Z,93.74
2018-05-09T05:36:48.342Z,93.84
2018-05-09T05:37:48.285Z,93.84
2018-05-09T05:38:48.320Z,94.03
2018-05-09T05:39:48.168Z,93.46
2018-05-09T05:40:48.112Z,94.32
2018-05-09T05:41:48.057Z,94.41
2018-05-09T05:42:47.999Z,94.32
2018-05-09T05:43:47.940Z,94.74
2018-05-09T05:44:47.884Z,94.07
2018-05-09T05:45:47.826Z,94.46
2018-05-09T05:46:47.770Z,93.70
2018-05-09T05:47:47.712Z,92.83
2018-05-09T05:48:47.656Z,91.31
2018-05-09T05:49:47.598Z,90.64
2018-05-09T05:50:47.542Z,91.02
2018-05-09T05:51:47.485Z,90.64
2018-05-09T05:52:47.428Z,90.26
2018-05-09T05:53:47.372Z,90.02
2018-05-09T05:54:47.314Z,90.07
2018-05-09T05:55:47.257Z,90.31
2018-05-09T05:56:47.208Z,90.50
2018-05-09T05:57:47.145Z,90.50
2018-05-09T05:58:47.088Z,90.88
2018-05-09T05:59:47.032Z,90.11
2018-05-09T06:00:46.982Z,89.06
2018-05-09T06:01:46.919Z,89.92
2018-05-09T06:02:46.866Z,89.01
2018-05-09T06:03:46.807Z,88.44
2018-05-09T06:04:46.753Z,89.11
2018-05-09T06:05:46.695Z,89.25
2018-05-09T06:06:46.637Z,90.11
2018-05-09T06:07:46.586Z,90.68
2018-05-09T06:08:46.525Z,91.16
2018-05-09T06:09:46.469Z,91.25
2018-05-09T06:10:46.413Z,90.44
2018-05-09T06:11:46.357Z,89.67
2018-05-09T06:12:46.300Z,89.48
2018-05-09T06:13:46.245Z,88.53
2018-05-09T06:14:46.190Z,86.04
2018-05-09T06:15:46.135Z,87.04
2018-05-09T06:16:46.078Z,84.84
2018-05-09T06:17:46.023Z,84.17
2018-05-09T06:18:45.967Z,82.07
2018-05-09T06:19:45.913Z,82.45
2018-05-09T06:20:45.854Z,80.38
2018-05-09T06:21:45.800Z,81.05
2018-05-09T06:22:45.744Z,81.63
2018-05-09T06:23:45.688Z,82.30
2018-05-09T06:24:45.632Z,79.43
2018-05-09T06:25:45.582Z,77.70
2018-05-09T06:26:45.522Z,77.55
2018-05-09T06:27:45.469Z,77.65
2018-05-09T06:28:45.410Z,78.22
2018-05-09T06:29:45.357Z,77.94
2018-05-09T06:30:45.305Z,77.17
2018-05-09T06:31:45.248Z,79.13
2018-05-09T06:32:45.192Z,75.93
2018-05-09T06:33:45.136Z,76.21
2018-05-09T06:34:45.084Z,77.17
2018-05-09T06:35:45.026Z,76.21
2018-05-09T06:36:44.972Z,76.35
2018-05-09T06:37:44.935Z,77.02
2018-05-09T06:38:44.864Z,76.25
2018-05-09T06:39:44.809Z,77.02
2018-05-09T06:40:44.762Z,76.44
2018-05-09T06:41:44.717Z,76.06
2018-05-09T06:42:44.646Z,76.15
2018-05-09T06:43:44.641Z,76.92
2018-05-09T06:44:44.538Z,76.48
2018-05-09T06:45:44.487Z,75.23
2018-05-09T06:46:44.430Z,74.37
2018-05-09T06:47:44.376Z,72.36
2018-05-09T06:48:44.322Z,73.32
2018-05-09T06:49:44.267Z,73.26
2018-05-09T06:50:44.214Z,72.01
2018-05-09T06:51:44.158Z,71.53
2018-05-09T06:52:44.106Z,71.72
2018-05-09T06:53:44.054Z,71.76
2018-05-09T06:54:44.000Z,71.47
2018-05-09T06:55:43.946Z,71.66
2018-05-09T06:56:43.892Z,70.61
2018-05-09T06:57:43.838Z,69.65
2018-05-09T06:58:43.787Z,70.70
2018-05-09T06:59:43.733Z,70.55
2018-05-09T07:00:43.677Z,70.93
2018-05-09T07:01:43.625Z,71.61
2018-05-09T07:02:43.574Z,69.78
2018-05-09T07:03:43.519Z,68.24
2018-05-09T07:04:43.464Z,67.41
2018-05-09T07:05:43.413Z,67.70
2018-05-09T07:06:43.614Z,69.05
2018-05-09T07:07:43.304Z,67.41
2018-05-09T07:08:43.254Z,65.78
2018-05-09T07:09:43.199Z,65.33
2018-05-09T07:10:43.147Z,64.47
2018-05-09T07:11:43.094Z,66.68
2018-05-09T07:12:43.131Z,66.30
2018-05-09T07:13:42.988Z,66.00
2018-05-09T07:14:42.937Z,65.23
2018-05-09T07:15:42.882Z,63.73
2018-05-09T07:16:42.832Z,62.10
2018-05-09T07:17:42.780Z,64.31
2018-05-09T07:18:42.726Z,62.68
2018-05-09T07:19:42.673Z,62.58
2018-05-09T07:20:42.626Z,61.61
2018-05-09T07:21:42.574Z,62.77
2018-05-09T07:22:42.516Z,62.19
2018-05-09T07:23:42.466Z,63.35
2018-05-09T07:24:42.412Z,61.52
2018-05-09T07:25:42.360Z,61.52
2018-05-09T07:26:42.308Z,61.16
2018-05-09T07:27:42.262Z,61.65
2018-05-09T07:28:42.204Z,60.97
2018-05-09T07:29:42.152Z,60.59
2018-05-09T07:30:42.101Z,60.39
2018-05-09T07:31:42.049Z,59.82
2018-05-09T07:32:41.996Z,58.86
2018-05-09T07:33:41.944Z,59.05
2018-05-09T07:34:41.892Z,59.15
2018-05-09T07:35:41.853Z,58.50
2018-05-09T07:36:41.789Z,58.31
2018-05-09T07:37:41.737Z,58.31
2018-05-09T07:38:41.690Z,57.73
2018-05-09T07:39:41.634Z,59.08
2018-05-09T07:40:41.582Z,58.98
2018-05-09T07:41:41.532Z,59.17
2018-05-09T07:42:41.544Z,58.34
2018-05-09T07:43:41.430Z,57.28
2018-05-09T07:44:41.381Z,56.12
2018-05-09T07:45:41.328Z,56.05
2018-05-09T07:46:41.274Z,55.74
2018-05-09T07:47:41.342Z,57.40
2018-05-09T07:48:41.174Z,56.63
2018-05-09T07:49:41.124Z,55.00
2018-05-09T07:50:41.079Z,55.48
2018-05-09T07:51:41.031Z,55.29
2018-05-09T07:52:40.977Z,54.54
2018-05-09T07:53:40.918Z,54.22
2018-05-09T07:54:40.870Z,54.03
2018-05-09T07:55:40.882Z,53.77
2018-05-09T07:56:40.764Z,53.67
2018-05-09T07:57:40.713Z,53.48
2018-05-09T07:58:40.673Z,55.70
2018-05-09T07:59:40.616Z,57.24
2018-05-09T08:00:40.562Z,56.27
2018-05-09T08:01:40.518Z,54.83
2018-05-09T08:02:40.460Z,54.86
2018-05-09T08:03:40.417Z,53.80
2018-05-09T08:04:40.363Z,54.47
2018-05-09T08:05:40.308Z,54.66
2018-05-09T08:06:40.270Z,53.22
2018-05-09T08:07:40.206Z,53.99
2018-05-09T08:08:40.157Z,54.09
2018-05-09T08:09:40.105Z,53.73
2018-05-09T08:10:40.064Z,53.15
2018-05-09T08:11:40.010Z,52.76
2018-05-09T08:12:39.956Z,51.70
2018-05-09T08:13:39.904Z,51.89
2018-05-09T08:14:39.856Z,51.61
2018-05-09T08:15:39.805Z,50.16
2018-05-09T08:16:39.768Z,49.87
2018-05-09T08:17:39.705Z,50.35
2018-05-09T08:18:39.656Z,50.35
2018-05-09T08:19:39.604Z,50.47
2018-05-09T08:20:39.563Z,49.68
2018-05-09T08:21:39.515Z,50.54
2018-05-09T08:22:39.461Z,49.68
2018-05-09T08:23:39.409Z,49.80
2018-05-09T08:24:39.355Z,50.38
2018-05-09T08:25:39.306Z,49.70
2018-05-09T08:26:39.257Z,50.86
2018-05-09T08:27:39.212Z,49.41
2018-05-09T08:28:39.156Z,48.95
2018-05-09T08:29:39.112Z,48.28
2018-05-09T08:30:39.058Z,48.47
2018-05-09T08:31:39.007Z,48.37
2018-05-09T08:32:38.957Z,49.44
2018-05-09T08:33:38.907Z,49.51
2018-05-09T08:34:38.865Z,49.32
2018-05-09T08:35:38.809Z,48.44
2018-05-09T08:36:38.856Z,48.83
2018-05-09T08:37:38.710Z,48.90
2018-05-09T08:38:38.664Z,49.39
2018-05-09T08:39:38.611Z,49.39
2018-05-09T08:40:38.571Z,50.54
2018-05-09T08:41:38.518Z,50.28
2018-05-09T08:42:38.464Z,49.58
2018-05-09T08:43:38.431Z,49.00
2018-05-09T08:44:38.363Z,49.48
2018-05-09T08:45:38.314Z,50.45
2018-05-09T08:46:38.272Z,49.51
2018-05-09T08:47:38.219Z,49.32
2018-05-09T08:48:38.164Z,49.34
2018-05-09T08:49:38.121Z,48.86
2018-05-09T08:50:38.076Z,48.66
2018-05-09T08:51:38.016Z,47.81
2018-05-09T08:52:37.969Z,47.33
2018-05-09T08:53:37.921Z,47.33
2018-05-09T08:54:37.873Z,47.14
2018-05-09T08:55:37.820Z,47.63
2018-05-09T08:56:37.774Z,48.13
2018-05-09T08:57:37.722Z,46.97
2018-05-09T08:58:37.682Z,45.11
2018-05-09T08:59:37.636Z,46.56
2018-05-09T09:00:37.576Z,47.81
2018-05-09T09:01:37.527Z,47.81
2018-05-09T09:02:37.484Z,47.84
2018-05-09T09:03:37.528Z,47.65
2018-05-09T09:04:37.380Z,46.56
2018-05-09T09:05:37.331Z,46.56
2018-05-09T09:06:37.283Z,47.22
2018-05-09T09:07:37.233Z,47.58
2018-05-09T09:08:37.185Z,47.58
2018-05-09T09:09:37.137Z,48.13
2018-05-09T09:10:37.087Z,49.58
2018-05-09T09:11:37.038Z,49.48
2018-05-09T09:12:36.987Z,49.32
2018-05-09T09:13:36.939Z,49.15
2018-05-09T09:14:36.893Z,48.95
2018-05-09T09:15:36.853Z,48.76
2018-05-09T09:16:36.796Z,47.53
2018-05-09T09:17:36.744Z,47.81
2018-05-09T09:18:36.791Z,47.60
2018-05-09T09:19:36.645Z,46.83
2018-05-09T09:20:36.601Z,48.69
2018-05-09T09:21:36.547Z,48.49
2018-05-09T09:22:36.503Z,46.95
2018-05-09T09:23:36.449Z,47.24
2018-05-09T09:24:36.399Z,48.11
2018-05-09T09:25:36.351Z,48.30
2018-05-09T09:26:36.303Z,48.49
2018-05-09T09:27:36.253Z,47.89
2018-05-09T09:28:36.205Z,48.35
2018-05-09T09:29:36.156Z,49.22
2018-05-09T09:30:36.107Z,49.70
2018-05-09T09:31:36.057Z,50.93
2018-05-09T09:32:36.009Z,50.84
2018-05-09T09:33:35.960Z,49.68
2018-05-09T09:34:35.911Z,50.16
2018-05-09T09:35:35.863Z,49.48
2018-05-09T09:36:35.814Z,49.68
2018-05-09T09:37:35.763Z,49.77
2018-05-09T09:38:35.717Z,50.64
2018-05-09T09:39:35.667Z,50.26
2018-05-09T09:40:35.617Z,52.69
2018-05-09T09:41:35.624Z,49.02
2018-05-09T09:42:35.518Z,48.66
2018-05-09T09:43:35.466Z,48.25
2018-05-09T09:44:35.417Z,48.95
2018-05-09T09:45:35.372Z,48.95
2018-05-09T09:46:35.321Z,49.73
2018-05-09T09:47:35.270Z,49.53
2018-05-09T09:48:35.223Z,50.69
2018-05-09T09:49:35.174Z,50.23
2018-05-09T09:50:35.161Z,49.55
2018-05-09T09:51:35.074Z,48.79
2018-05-09T09:52:35.025Z,48.01
2018-05-09T09:53:34.977Z,47.24
2018-05-09T09:54:34.927Z,47.81
2018-05-09T09:55:34.878Z,47.74
2018-05-09T09:56:34.830Z,48.52
2018-05-09T09:57:34.780Z,48.49
2018-05-09T09:58:34.731Z,47.91
2018-05-09T09:59:34.682Z,48.39
2018-05-09T10:00:34.637Z,48.11
2018-05-09T10:01:34.639Z,48.79
2018-05-09T10:02:34.538Z,48.61
2018-05-09T10:03:34.486Z,46.49
2018-05-09T10:04:34.438Z,46.78
2018-05-09T10:05:34.391Z,46.49
2018-05-09T10:06:34.342Z,46.97
2018-05-09T10:07:34.292Z,48.13
2018-05-09T10:08:34.243Z,46.58
2018-05-09T10:09:34.196Z,47.81
2018-05-09T10:10:34.150Z,47.33
2018-05-09T10:11:34.098Z,47.63
2018-05-09T10:12:34.050Z,47.70
2018-05-09T10:13:34.001Z,47.70
2018-05-09T10:14:33.954Z,49.92
2018-05-09T10:15:33.903Z,49.92
2018-05-09T10:16:33.856Z,49.53
2018-05-09T10:17:33.807Z,48.95
2018-05-09T10:18:33.758Z,49.70
2018-05-09T10:19:33.720Z,49.51
2018-05-09T10:20:33.661Z,49.63
2018-05-09T10:21:33.611Z,49.24
2018-05-09T10:22:33.565Z,47.99
2018-05-09T10:23:33.514Z,48.30
2018-05-09T10:24:33.464Z,48.03
2018-05-09T10:25:33.415Z,46.68
2018-05-09T10:26:33.369Z,45.91
2018-05-09T10:27:33.320Z,45.91
2018-05-09T10:28:33.270Z,45.42
2018-05-09T10:29:33.221Z,45.72
2018-05-09T10:30:33.173Z,45.72
2018-05-09T10:31:33.225Z,46.61
2018-05-09T10:32:33.075Z,45.33
2018-05-09T10:33:33.027Z,44.56
2018-05-09T10:34:32.979Z,44.84
2018-05-09T10:35:32.930Z,44.82
2018-05-09T10:36:32.882Z,46.56
2018-05-09T10:37:32.837Z,44.65
2018-05-09T10:38:32.786Z,44.75
2018-05-09T10:39:32.736Z,45.42
2018-05-09T10:40:32.688Z,46.12
2018-05-09T10:41:32.641Z,45.18
2018-05-09T10:42:32.594Z,46.73
2018-05-09T10:43:32.544Z,45.37
2018-05-09T10:44:32.498Z,43.92
2018-05-09T10:45:32.450Z,44.29
2018-05-09T10:46:32.402Z,44.19
2018-05-09T10:47:32.439Z,44.75
2018-05-09T10:48:32.305Z,44.82
2018-05-09T10:49:32.259Z,45.21
2018-05-09T10:50:32.208Z,46.56
2018-05-09T10:51:32.160Z,47.24
2018-05-09T10:52:32.113Z,48.30
2018-05-09T10:53:32.064Z,44.82
2018-05-09T10:54:32.017Z,44.94
2018-05-09T10:55:31.971Z,45.25
2018-05-09T10:56:31.920Z,44.19
2018-05-09T10:57:31.871Z,43.90
2018-05-09T10:58:31.822Z,44.29
2018-05-09T10:59:31.775Z,43.44
2018-05-09T11:00:31.726Z,43.46
2018-05-09T11:01:31.686Z,42.30
2018-05-09T11:02:31.631Z,42.20
2018-05-09T11:03:31.582Z,42.00
2018-05-09T11:04:31.534Z,41.55
2018-05-09T11:05:31.488Z,41.25
2018-05-09T11:06:31.441Z,40.86
2018-05-09T11:07:31.394Z,40.48
2018-05-09T11:08:31.344Z,44.81
2018-05-09T11:09:31.297Z,41.50
2018-05-09T11:10:31.327Z,41.31
2018-05-09T11:11:31.204Z,41.21
2018-05-09T11:12:31.154Z,41.31
2018-05-09T11:13:31.107Z,42.86
2018-05-09T11:14:31.059Z,43.17
2018-05-09T11:15:31.013Z,42.08
2018-05-09T11:16:30.964Z,42.57
2018-05-09T11:17:30.925Z,44.50
2018-05-09T11:18:30.877Z,45.35
2018-05-09T11:19:30.821Z,43.51
2018-05-09T11:20:30.775Z,45.23
2018-05-09T11:21:30.727Z,44.56
2018-05-09T11:22:30.682Z,43.88
2018-05-09T11:23:30.632Z,43.78
2018-05-09T11:24:30.613Z,45.52
2018-05-09T11:25:30.537Z,45.14
2018-05-09T11:26:30.490Z,46.90
2018-05-09T11:27:30.441Z,45.14
2018-05-09T11:28:30.402Z,44.75
2018-05-09T11:29:30.349Z,44.36
2018-05-09T11:30:30.303Z,44.56
2018-05-09T11:31:30.252Z,44.17
2018-05-09T11:32:30.204Z,43.49
2018-05-09T11:33:30.159Z,44.07
2018-05-09T11:34:30.129Z,44.75
2018-05-09T11:35:30.061Z,44.84
2018-05-09T11:36:30.014Z,46.20
2018-05-09T11:37:30.041Z,46.70
2018-05-09T11:38:29.919Z,45.52
2018-05-09T11:39:29.871Z,44.77
2018-05-09T11:40:29.822Z,44.77
2018-05-09T11:41:29.778Z,47.96
2018-05-09T11:42:29.727Z,47.28
2018-05-09T11:43:29.678Z,45.16
2018-05-09T11:44:29.634Z,44.56
2018-05-09T11:45:29.585Z,45.62
2018-05-09T11:46:29.566Z,46.58
2018-05-09T11:47:29.493Z,45.35
2018-05-09T11:48:29.441Z,45.83
2018-05-09T11:49:29.397Z,45.06
2018-05-09T11:50:29.346Z,42.76
2018-05-09T11:51:29.299Z,42.47
2018-05-09T11:52:29.299Z,44.81
2018-05-09T11:53:29.202Z,40.46
2018-05-09T11:54:29.156Z,38.83
2018-05-09T11:55:29.109Z,39.78
2018-05-09T11:56:29.060Z,43.75
2018-05-09T11:57:29.015Z,41.04
2018-05-09T11:58:28.968Z,39.88
2018-05-09T11:59:28.925Z,40.58
2018-05-09T12:00:28.872Z,40.28
2018-05-09T12:01:28.825Z,41.55
2018-05-09T12:02:28.810Z,43.19
2018-05-09T12:03:28.731Z,42.24
2018-05-09T12:04:28.686Z,41.95
2018-05-09T12:05:28.644Z,40.77
2018-05-09T12:06:28.590Z,40.86
2018-05-09T12:07:28.543Z,41.91
2018-05-09T12:08:28.505Z,41.72
2018-05-09T12:09:28.451Z,41.79
2018-05-09T12:10:28.496Z,43.44
2018-05-09T12:11:28.359Z,43.73
2018-05-09T12:12:28.308Z,43.51
2018-05-09T12:13:28.260Z,45.74
2018-05-09T12:14:28.214Z,45.06
2018-05-09T12:15:28.165Z,44.57
2018-05-09T12:16:28.119Z,43.78
2018-05-09T12:17:28.070Z,44.84
2018-05-09T12:18:28.023Z,45.52
2018-05-09T12:19:27.976Z,43.40
2018-05-09T12:20:27.928Z,43.01
2018-05-09T12:21:27.880Z,43.10
2018-05-09T12:22:27.835Z,43.30
2018-05-09T12:23:27.786Z,43.78
2018-05-09T12:24:27.752Z,43.23
2018-05-09T12:25:27.697Z,42.65
2018-05-09T12:26:27.642Z,43.13
2018-05-09T12:27:27.594Z,41.70
2018-05-09T12:28:27.545Z,40.92
2018-05-09T12:29:27.499Z,40.92
2018-05-09T12:30:27.455Z,41.89
2018-05-09T12:31:27.403Z,41.62
2018-05-09T12:32:27.355Z,39.49
2018-05-09T12:33:27.309Z,39.78
2018-05-09T12:34:27.261Z,39.49
2018-05-09T12:35:27.299Z,39.20
2018-05-09T12:36:27.232Z,38.04
2018-05-09T12:37:27.118Z,37.87
2018-05-09T12:38:27.069Z,37.57
2018-05-09T12:39:27.022Z,38.54
2018-05-09T12:40:26.973Z,37.30
2018-05-09T12:41:26.927Z,37.30
2018-05-09T12:42:26.938Z,38.46
2018-05-09T12:43:26.833Z,37.11
2018-05-09T12:44:26.791Z,38.07
2018-05-09T12:45:26.742Z,37.88
2018-05-09T12:46:26.691Z,36.99
2018-05-09T12:47:26.642Z,36.80
2018-05-09T12:48:26.696Z,37.28
2018-05-09T12:49:26.548Z,36.49
2018-05-09T12:50:26.505Z,38.04
2018-05-09T12:51:26.461Z,39.01